createdAt,value
2022-10-24T00:00:37.760Z,13.1
2022-10-24T00:02:33.180Z,13.1
2022-10-24T00:03:39.740Z,13
2022-10-24T00:04:46.289Z,13
2022-10-24T00:05:52.834Z,13
2022-10-24T00:06:59.388Z,12.9
2022-10-24T00:08:05.961Z,12.9
2022-10-24T00:09:12.505Z,12.9
2022-10-24T00:10:19.065Z,12.9
2022-10-24T00:11:25.623Z,12.9
2022-10-24T00:12:32.182Z,12.9
2022-10-24T00:13:38.735Z,12.9
2022-10-24T00:14:45.295Z,13
2022-10-24T00:15:51.847Z,13
2022-10-24T00:16:58.413Z,13.1
2022-10-24T00:18:04.949Z,13
2022-10-24T00:19:11.510Z,13.1
2022-10-24T00:20:18.073Z,13.1
2022-10-24T00:21:24.628Z,13.1
2022-10-24T00:22:31.194Z,13.1
2022-10-24T00:23:37.743Z,13.3
2022-10-24T00:24:44.299Z,13.2
2022-10-24T00:25:50.861Z,13.2
2022-10-24T00:26:57.422Z,13.2
2022-10-24T00:28:03.969Z,13.3
2022-10-24T00:29:10.527Z,13.3
2022-10-24T00:30:17.326Z,13.3
2022-10-24T00:31:24.116Z,13.3
2022-10-24T00:32:30.921Z,13.3
2022-10-24T00:33:37.727Z,13.2
2022-10-24T00:34:44.502Z,13.2
2022-10-24T00:35:51.296Z,13.2
2022-10-24T00:36:58.095Z,13.2
2022-10-24T00:38:04.885Z,13.3
2022-10-24T00:39:11.679Z,13.4
2022-10-24T00:40:18.477Z,13.4
2022-10-24T00:41:25.293Z,13.5
2022-10-24T00:42:32.067Z,13.6
2022-10-24T00:43:38.864Z,13.6
2022-10-24T00:46:18.077Z,13.7
2022-10-24T00:47:56.808Z,13.8
2022-10-24T00:49:35.556Z,13.9
2022-10-24T00:51:14.284Z,13.8
2022-10-24T00:52:21.564Z,13.7
2022-10-24T00:53:28.835Z,13.7
2022-10-24T00:55:07.580Z,13.7
2022-10-24T00:56:46.308Z,13.7
2022-10-24T00:58:25.054Z,13.7
2022-10-24T01:00:03.801Z,13.7
2022-10-24T01:01:42.544Z,13.7
2022-10-24T01:03:21.319Z,13.6
2022-10-24T01:05:00.023Z,13.6
2022-10-24T01:08:49.564Z,13.5
2022-10-24T01:09:56.240Z,13.5
2022-10-24T01:11:02.674Z,13.5
2022-10-24T01:12:09.100Z,13.5
2022-10-24T01:13:15.539Z,13.4
2022-10-24T01:14:22.001Z,13.4
2022-10-24T01:15:28.411Z,13.5
2022-10-24T01:16:34.865Z,13.5
2022-10-24T01:17:41.296Z,13.5
2022-10-24T01:18:47.729Z,13.5
2022-10-24T01:19:54.162Z,13.5
2022-10-24T01:21:00.600Z,13.5
2022-10-24T01:22:07.040Z,13.4
2022-10-24T01:23:13.507Z,13.4
2022-10-24T01:24:19.919Z,13.5
2022-10-24T01:25:26.362Z,13.5
2022-10-24T01:26:32.798Z,13.5
2022-10-24T01:27:39.235Z,13.5
2022-10-24T01:28:45.678Z,13.4
2022-10-24T01:29:52.119Z,13.4
2022-10-24T01:30:58.552Z,13.5
2022-10-24T01:32:04.992Z,13.5
2022-10-24T01:33:11.430Z,13.6
2022-10-24T01:34:17.908Z,13.6
2022-10-24T01:35:24.317Z,13.6
2022-10-24T01:36:30.737Z,13.5
2022-10-24T01:37:37.323Z,13.5
2022-10-24T01:38:43.874Z,13.4
2022-10-24T01:39:50.435Z,13.4
2022-10-24T01:40:56.997Z,13.5
2022-10-24T01:42:03.540Z,13.4
2022-10-24T01:43:10.098Z,13.4
2022-10-24T01:44:16.660Z,13.3
2022-10-24T01:45:23.211Z,13.3
2022-10-24T01:46:29.794Z,13.3
2022-10-24T01:47:36.332Z,13.3
2022-10-24T01:48:42.888Z,13.2
2022-10-24T01:49:49.462Z,13.2
2022-10-24T01:50:56.005Z,13.2
2022-10-24T01:52:45.320Z,13.2
2022-10-24T01:54:58.908Z,13.2
2022-10-24T01:57:12.496Z,13.1
2022-10-24T01:58:19.306Z,13.1
2022-10-24T01:59:26.095Z,13.2
2022-10-24T02:00:32.888Z,13.2
2022-10-24T02:01:39.701Z,13.2
2022-10-24T02:02:46.470Z,13.3
2022-10-24T02:03:53.268Z,13.4
2022-10-24T02:05:00.100Z,13.4
2022-10-24T02:06:06.864Z,13.3
2022-10-24T02:09:24.975Z,13.2
2022-10-24T02:11:00.502Z,13.2
2022-10-24T02:12:07.776Z,13.3
2022-10-24T02:13:46.526Z,13.3
2022-10-24T02:15:25.259Z,13.3
2022-10-24T02:17:04.058Z,13.2
2022-10-24T02:18:42.746Z,13.2
2022-10-24T02:20:21.494Z,13.2
2022-10-24T02:22:00.231Z,13.2
2022-10-24T02:23:38.960Z,13.2
2022-10-24T02:25:17.950Z,13.2
2022-10-24T02:26:56.453Z,13.2
2022-10-24T02:28:03.774Z,13.2
2022-10-24T02:31:04.451Z,13.1
2022-10-24T02:34:20.177Z,13.2
2022-10-24T02:35:26.706Z,13.2
2022-10-24T02:36:33.267Z,13.2
2022-10-24T02:37:39.821Z,13.1
2022-10-24T02:38:46.376Z,13.1
2022-10-24T02:39:52.984Z,13.1
2022-10-24T02:40:59.486Z,13
2022-10-24T02:42:06.046Z,13
2022-10-24T02:43:12.603Z,13.1
2022-10-24T02:44:19.166Z,13.1
2022-10-24T02:45:25.725Z,13.1
2022-10-24T02:46:32.288Z,13.1
2022-10-24T02:47:38.849Z,13.1
2022-10-24T02:48:45.409Z,13
2022-10-24T02:49:52.007Z,13.1
2022-10-24T02:50:58.527Z,13.1
2022-10-24T02:52:05.127Z,13.1
2022-10-24T02:53:11.659Z,13
2022-10-24T02:54:18.232Z,13
2022-10-24T02:55:24.768Z,13
2022-10-24T02:56:31.319Z,13
2022-10-24T02:57:37.884Z,13.1
2022-10-24T02:58:44.441Z,13
2022-10-24T02:59:51.014Z,13
2022-10-24T03:00:57.559Z,13
2022-10-24T03:02:04.357Z,13.1
2022-10-24T03:03:11.155Z,13
2022-10-24T03:04:17.959Z,13
2022-10-24T03:05:24.719Z,13
2022-10-24T03:06:31.541Z,13
2022-10-24T03:07:38.306Z,13
2022-10-24T03:08:45.094Z,13
2022-10-24T03:09:51.929Z,13
2022-10-24T03:10:58.683Z,13
2022-10-24T03:12:05.468Z,12.9
2022-10-24T03:13:12.271Z,12.9
2022-10-24T03:14:19.057Z,12.8
2022-10-24T03:15:25.860Z,12.8
2022-10-24T03:16:33.163Z,12.8
2022-10-24T03:18:11.903Z,12.8
2022-10-24T03:19:50.632Z,12.8
2022-10-24T03:21:29.383Z,12.8
2022-10-24T03:23:08.118Z,12.8
2022-10-24T03:24:46.862Z,12.8
2022-10-24T03:26:25.622Z,12.8
2022-10-24T03:28:04.343Z,12.8
2022-10-24T03:29:43.122Z,12.7
2022-10-24T03:31:21.846Z,12.7
2022-10-24T03:33:00.577Z,12.7
2022-10-24T03:34:39.316Z,12.7
2022-10-24T03:36:18.060Z,12.8
2022-10-24T03:40:26.117Z,12.8
2022-10-24T03:41:32.692Z,12.7
2022-10-24T03:43:41.781Z,12.7
2022-10-24T03:44:48.355Z,12.8
2022-10-24T03:45:54.888Z,12.7
2022-10-24T03:47:01.456Z,12.8
2022-10-24T03:48:08.002Z,12.8
2022-10-24T03:49:14.550Z,12.9
2022-10-24T03:50:21.144Z,12.9
2022-10-24T03:51:27.683Z,12.8
2022-10-24T03:52:34.242Z,12.8
2022-10-24T03:53:40.778Z,12.8
2022-10-24T03:54:47.329Z,12.9
2022-10-24T03:55:53.890Z,12.9
2022-10-24T03:57:00.449Z,12.9
2022-10-24T03:58:07.004Z,12.9
2022-10-24T03:59:13.555Z,13
2022-10-24T04:00:20.185Z,13.1
2022-10-24T04:01:26.661Z,13.1
2022-10-24T04:02:33.225Z,13.1
2022-10-24T04:03:39.798Z,13.2
2022-10-24T04:04:46.383Z,13.1
2022-10-24T04:05:52.902Z,13.1
2022-10-24T04:06:59.454Z,13.1
2022-10-24T04:08:06.026Z,13.1
2022-10-24T04:10:19.370Z,13.1
2022-10-24T04:11:26.173Z,13.1
2022-10-24T04:12:32.955Z,13.1
2022-10-24T04:13:39.752Z,13.2
2022-10-24T04:14:46.563Z,13.2
2022-10-24T04:15:53.366Z,13.2
2022-10-24T04:17:00.201Z,13.1
2022-10-24T04:18:06.969Z,13.1
2022-10-24T04:19:13.768Z,13.2
2022-10-24T04:20:20.526Z,13.1
2022-10-24T04:21:27.330Z,13.1
2022-10-24T04:22:34.122Z,13.1
2022-10-24T04:23:40.914Z,13.2
2022-10-24T04:26:19.899Z,13.2
2022-10-24T04:27:58.787Z,13.3
2022-10-24T04:29:37.375Z,13.3
2022-10-24T04:31:16.113Z,13.3
2022-10-24T04:32:23.388Z,13.3
2022-10-24T04:33:30.660Z,13.2
2022-10-24T04:35:09.419Z,13.2
2022-10-24T04:36:48.190Z,13.2
2022-10-24T04:38:26.879Z,13.3
2022-10-24T04:40:05.625Z,13.3
2022-10-24T04:41:44.362Z,13.4
2022-10-24T04:43:23.109Z,13.4
2022-10-24T04:45:01.843Z,13.5
2022-10-24T04:48:51.393Z,13.4
2022-10-24T04:49:57.998Z,13.4
2022-10-24T04:51:04.575Z,13.4
2022-10-24T04:52:11.164Z,13.4
2022-10-24T04:53:17.702Z,13.5
2022-10-24T04:54:24.238Z,13.4
2022-10-24T04:55:30.788Z,13.4
2022-10-24T04:56:37.363Z,13.4
2022-10-24T04:57:43.910Z,13.4
2022-10-24T04:58:50.465Z,13.4
2022-10-24T04:59:57.022Z,13.4
2022-10-24T05:01:03.580Z,13.4
2022-10-24T05:02:10.142Z,13.4
2022-10-24T05:03:16.695Z,13.4
2022-10-24T05:04:23.298Z,13.5
2022-10-24T05:05:29.818Z,13.4
2022-10-24T05:06:36.375Z,13.4
2022-10-24T05:07:42.937Z,13.5
2022-10-24T05:08:49.490Z,13.4
2022-10-24T05:09:56.079Z,13.4
2022-10-24T05:11:02.609Z,13.5
2022-10-24T05:12:09.176Z,13.5
2022-10-24T05:13:15.730Z,13.6
2022-10-24T05:14:22.278Z,13.6
2022-10-24T05:15:28.827Z,13.5
2022-10-24T05:16:35.390Z,13.5
2022-10-24T05:17:42.183Z,13.5
2022-10-24T05:18:48.978Z,13.4
2022-10-24T05:19:55.867Z,13.4
2022-10-24T05:21:02.569Z,13.4
2022-10-24T05:22:09.369Z,13.4
2022-10-24T05:23:16.243Z,13.4
2022-10-24T05:24:22.978Z,13.5
2022-10-24T05:25:29.740Z,13.4
2022-10-24T05:26:36.591Z,13.5
2022-10-24T05:27:43.347Z,13.5
2022-10-24T05:28:50.157Z,13.4
2022-10-24T05:29:56.917Z,13.4
2022-10-24T05:31:03.749Z,13.4
2022-10-24T05:33:44.174Z,13.4
2022-10-24T05:35:22.898Z,13.5
2022-10-24T05:37:01.600Z,13.5
2022-10-24T05:38:40.338Z,13.5
2022-10-24T05:39:47.616Z,13.5
2022-10-24T05:40:54.880Z,13.5
2022-10-24T05:42:33.665Z,13.6
2022-10-24T05:44:12.357Z,13.6
2022-10-24T05:45:51.099Z,13.6
2022-10-24T05:47:29.852Z,13.5
2022-10-24T05:49:08.571Z,13.6
2022-10-24T05:50:47.314Z,13.6
2022-10-24T05:52:26.054Z,13.7
2022-10-24T05:56:15.605Z,13.7
2022-10-24T05:57:22.448Z,13.8
2022-10-24T05:58:28.950Z,13.9
2022-10-24T05:59:35.508Z,13.9
2022-10-24T06:00:42.070Z,14
2022-10-24T06:01:48.616Z,14
2022-10-24T06:02:55.166Z,14.1
2022-10-24T06:04:01.744Z,14.1
2022-10-24T06:05:08.273Z,14
2022-10-24T06:06:14.825Z,13.9
2022-10-24T06:07:21.407Z,13.9
2022-10-24T06:08:27.945Z,13.9
2022-10-24T06:09:34.502Z,13.8
2022-10-24T06:10:41.051Z,13.8
2022-10-24T06:11:47.633Z,13.8
2022-10-24T06:12:54.165Z,13.9
2022-10-24T06:14:00.727Z,13.9
2022-10-24T06:15:07.286Z,13.9
2022-10-24T06:16:13.840Z,14
2022-10-24T06:17:20.441Z,14
2022-10-24T06:18:26.946Z,14
2022-10-24T06:19:33.488Z,14
2022-10-24T06:20:40.066Z,14
2022-10-24T06:21:46.617Z,14
2022-10-24T06:22:53.160Z,14
2022-10-24T06:23:59.895Z,14.1
2022-10-24T06:25:06.529Z,14.1
2022-10-24T06:26:13.358Z,14.1
2022-10-24T06:27:20.102Z,14.1
2022-10-24T06:28:26.894Z,14.1
2022-10-24T06:29:33.690Z,14.1
2022-10-24T06:30:40.486Z,14.1
2022-10-24T06:31:47.280Z,14.2
2022-10-24T06:32:54.143Z,14.2
2022-10-24T06:34:00.926Z,14.1
2022-10-24T06:35:07.722Z,14.2
2022-10-24T06:36:14.506Z,14.1
2022-10-24T06:37:21.256Z,14.1
2022-10-24T06:38:28.050Z,14.1
2022-10-24T06:41:07.797Z,14.1
2022-10-24T06:42:46.530Z,14
2022-10-24T06:44:25.304Z,14
2022-10-24T06:46:04.007Z,13.9
2022-10-24T06:47:11.414Z,13.9
2022-10-24T06:48:18.645Z,14
2022-10-24T06:49:57.417Z,13.9
2022-10-24T06:51:36.016Z,13.9
2022-10-24T06:53:14.770Z,13.9
2022-10-24T06:54:53.489Z,13.9
2022-10-24T06:56:32.231Z,13.9
2022-10-24T06:58:10.964Z,14
2022-10-24T06:59:49.689Z,14
2022-10-24T07:03:39.296Z,14
2022-10-24T07:04:45.779Z,14.1
2022-10-24T07:05:52.230Z,14.1
2022-10-24T07:06:58.667Z,14.2
2022-10-24T07:08:05.099Z,14.2
2022-10-24T07:09:11.612Z,14.2
2022-10-24T07:10:17.973Z,14.3
2022-10-24T07:11:24.405Z,14.3
2022-10-24T07:12:30.852Z,14.4
2022-10-24T07:13:37.297Z,14.5
2022-10-24T07:14:43.770Z,14.5
2022-10-24T07:15:50.156Z,14.5
2022-10-24T07:16:56.613Z,14.6
2022-10-24T07:18:03.044Z,14.6
2022-10-24T07:19:09.479Z,14.6
2022-10-24T07:20:15.907Z,14.6
2022-10-24T07:21:22.353Z,14.6
2022-10-24T07:22:28.790Z,14.7
2022-10-24T07:23:35.363Z,14.7
2022-10-24T07:24:41.801Z,14.6
2022-10-24T07:25:48.106Z,14.5
2022-10-24T07:26:54.534Z,14.6
2022-10-24T07:28:00.973Z,14.6
2022-10-24T07:29:07.416Z,14.6
2022-10-24T07:30:13.847Z,14.7
2022-10-24T07:31:20.282Z,14.7
2022-10-24T07:32:26.857Z,14.7
2022-10-24T07:33:33.423Z,14.7
2022-10-24T07:34:39.981Z,14.7
2022-10-24T07:35:46.563Z,14.7
2022-10-24T07:36:53.098Z,14.6
2022-10-24T07:37:59.806Z,14.6
2022-10-24T07:39:06.206Z,14.6
2022-10-24T07:40:12.772Z,14.6
2022-10-24T07:41:19.314Z,14.6
2022-10-24T07:42:25.880Z,14.7
2022-10-24T07:43:32.427Z,14.7
2022-10-24T07:44:38.992Z,14.7
2022-10-24T07:45:45.558Z,14.7
2022-10-24T07:47:34.866Z,14.7
2022-10-24T07:48:41.674Z,14.7
2022-10-24T07:49:48.455Z,14.8
2022-10-24T07:50:55.251Z,14.8
2022-10-24T07:52:02.041Z,14.9
2022-10-24T07:53:08.832Z,14.9
2022-10-24T07:54:15.625Z,15
2022-10-24T07:55:22.444Z,15
2022-10-24T07:56:29.227Z,15
2022-10-24T07:57:35.991Z,15.1
2022-10-24T07:58:42.777Z,15.1
2022-10-24T07:59:49.574Z,15.2
2022-10-24T08:00:56.371Z,15.2
2022-10-24T08:04:14.477Z,15.2
2022-10-24T08:05:50.020Z,15.2
2022-10-24T08:06:57.304Z,15.2
2022-10-24T08:08:36.005Z,15.2
2022-10-24T08:10:14.742Z,15.2
2022-10-24T08:11:53.480Z,15.1
2022-10-24T08:13:32.224Z,15.1
2022-10-24T08:15:10.959Z,15.1
2022-10-24T08:16:49.699Z,15.1
2022-10-24T08:18:28.437Z,15.1
2022-10-24T08:20:07.175Z,15.2
2022-10-24T08:21:45.913Z,15.2
2022-10-24T08:22:53.181Z,15.3
2022-10-24T08:25:53.916Z,15.4
2022-10-24T08:29:09.609Z,15.6
2022-10-24T08:30:16.152Z,15.8
2022-10-24T08:31:22.716Z,15.8
2022-10-24T08:32:29.260Z,15.9
2022-10-24T08:33:35.820Z,15.9
2022-10-24T08:34:42.372Z,15.9
2022-10-24T08:35:48.969Z,16
2022-10-24T08:36:55.488Z,16.1
2022-10-24T08:38:02.039Z,16.1
2022-10-24T08:39:08.590Z,16.2
2022-10-24T08:40:15.129Z,16.2
2022-10-24T08:41:21.736Z,16.2
2022-10-24T08:42:28.334Z,16.3
2022-10-24T08:43:34.899Z,16.4
2022-10-24T08:44:41.352Z,16.5
2022-10-24T08:45:47.928Z,16.5
2022-10-24T08:46:54.460Z,16.5
2022-10-24T08:48:01.009Z,16.5
2022-10-24T08:49:07.557Z,16.5
2022-10-24T08:50:14.127Z,16.5
2022-10-24T08:51:20.668Z,16.5
2022-10-24T08:52:27.225Z,16.6
2022-10-24T08:53:33.789Z,16.6
2022-10-24T08:54:40.332Z,16.6
2022-10-24T08:55:46.877Z,16.6
2022-10-24T08:56:53.672Z,16.6
2022-10-24T08:58:00.467Z,16.6
2022-10-24T08:59:07.251Z,16.7
2022-10-24T09:00:14.040Z,16.8
2022-10-24T09:01:20.835Z,16.8
2022-10-24T09:02:27.617Z,16.8
2022-10-24T09:03:34.528Z,16.8
2022-10-24T09:04:41.202Z,16.8
2022-10-24T09:05:48.009Z,16.8
2022-10-24T09:06:54.772Z,16.9
2022-10-24T09:08:01.560Z,16.9
2022-10-24T09:09:08.343Z,17
2022-10-24T09:10:15.131Z,17.1
2022-10-24T09:11:22.441Z,17
2022-10-24T09:13:01.267Z,17
2022-10-24T09:14:39.958Z,17.1
2022-10-24T09:16:18.642Z,17.1
2022-10-24T09:17:57.367Z,17.1
2022-10-24T09:19:36.115Z,17.1
2022-10-24T09:21:14.881Z,17.3
2022-10-24T09:22:53.575Z,17.3
2022-10-24T09:24:32.317Z,17.4
2022-10-24T09:26:11.043Z,17.5
2022-10-24T09:27:49.851Z,17.6
2022-10-24T09:29:28.513Z,17.6
2022-10-24T09:31:07.265Z,17.6
2022-10-24T09:35:15.251Z,17.5
2022-10-24T09:36:22.099Z,17.7
2022-10-24T09:38:31.163Z,17.8
2022-10-24T09:39:38.022Z,18
2022-10-24T09:40:44.735Z,18
2022-10-24T09:41:51.667Z,18
2022-10-24T09:42:58.311Z,18
2022-10-24T09:44:05.102Z,18
2022-10-24T09:45:11.881Z,18
2022-10-24T09:46:18.663Z,18.1
2022-10-24T09:47:25.452Z,18.2
2022-10-24T09:48:32.244Z,18.3
2022-10-24T09:49:39.027Z,18.3
2022-10-24T09:50:45.816Z,18.4
2022-10-24T09:51:52.608Z,18.4
2022-10-24T09:52:59.392Z,18.4
2022-10-24T09:54:06.183Z,18.5
2022-10-24T09:55:12.970Z,18.6
2022-10-24T09:56:19.760Z,18.7
2022-10-24T09:57:26.549Z,18.6
2022-10-24T09:58:33.338Z,18.5
2022-10-24T09:59:40.128Z,18.3
2022-10-24T10:00:46.912Z,18.3
2022-10-24T10:01:53.700Z,18.2
2022-10-24T10:03:00.491Z,18.1
2022-10-24T10:04:07.296Z,18
2022-10-24T10:06:19.533Z,18
2022-10-24T10:07:58.254Z,17.9
2022-10-24T10:09:36.991Z,17.9
2022-10-24T10:11:14.529Z,17.9
2022-10-24T10:12:21.807Z,17.9
2022-10-24T10:14:00.534Z,17.9
2022-10-24T10:15:39.267Z,18
2022-10-24T10:17:17.996Z,18
2022-10-24T10:18:56.724Z,18.2
2022-10-24T10:20:35.459Z,18.3
2022-10-24T10:22:14.204Z,18.4
2022-10-24T10:23:52.933Z,18.6
2022-10-24T10:25:31.653Z,18.8
2022-10-24T10:27:42.570Z,18.8
2022-10-24T10:29:39.644Z,18.8
2022-10-24T10:32:55.597Z,18.6
2022-10-24T10:34:02.401Z,18.4
2022-10-24T10:35:09.188Z,18.2
2022-10-24T10:36:15.980Z,18.2
2022-10-24T10:37:22.764Z,18.2
2022-10-24T10:38:29.566Z,18.4
2022-10-24T10:39:36.344Z,18.6
2022-10-24T10:40:43.130Z,18.8
2022-10-24T10:41:49.922Z,18.8
2022-10-24T10:42:56.712Z,18.8
2022-10-24T10:44:03.491Z,18.7
2022-10-24T10:45:10.285Z,18.6
2022-10-24T10:46:17.088Z,18.6
2022-10-24T10:47:23.863Z,18.7
2022-10-24T10:48:30.649Z,18.9
2022-10-24T10:49:37.432Z,19
2022-10-24T10:50:44.221Z,19
2022-10-24T10:51:51.007Z,19.1
2022-10-24T10:52:57.797Z,19.3
2022-10-24T10:54:04.585Z,19.5
2022-10-24T10:55:11.366Z,19.6
2022-10-24T10:56:18.161Z,19.6
2022-10-24T10:57:24.992Z,19.7
2022-10-24T10:58:31.742Z,19.9
2022-10-24T10:59:38.516Z,20
2022-10-24T11:00:45.809Z,20
2022-10-24T11:01:53.079Z,20.1
2022-10-24T11:03:31.794Z,20.1
2022-10-24T11:05:10.524Z,19.9
2022-10-24T11:06:49.264Z,19.7
2022-10-24T11:08:27.998Z,19.5
2022-10-24T11:10:06.724Z,19.4
2022-10-24T11:11:45.458Z,19.4
2022-10-24T11:13:24.190Z,19.3
2022-10-24T11:15:02.939Z,19.2
2022-10-24T11:16:41.663Z,19.3
2022-10-24T11:17:48.917Z,19.2
2022-10-24T11:18:56.179Z,19.5
2022-10-24T11:23:04.166Z,19.7
2022-10-24T11:26:19.838Z,20.8
2022-10-24T11:27:26.385Z,20.1
2022-10-24T11:28:32.931Z,19.9
2022-10-24T11:29:39.484Z,19.9
2022-10-24T11:30:46.031Z,19.6
2022-10-24T11:31:52.585Z,19.7
2022-10-24T11:32:59.143Z,20.2
2022-10-24T11:34:05.684Z,20.3
2022-10-24T11:35:12.233Z,20.3
2022-10-24T11:36:18.781Z,20.1
2022-10-24T11:37:25.330Z,20.1
2022-10-24T11:38:31.872Z,20
2022-10-24T11:39:38.419Z,19.9
2022-10-24T11:40:44.970Z,20.1
2022-10-24T11:41:51.547Z,20.7
2022-10-24T11:42:58.070Z,20.4
2022-10-24T11:44:04.620Z,20.1
2022-10-24T11:45:11.168Z,20.1
2022-10-24T11:46:17.714Z,19.8
2022-10-24T11:47:24.269Z,19.7
2022-10-24T11:48:30.822Z,19.8
2022-10-24T11:49:37.369Z,19.7
2022-10-24T11:50:43.922Z,19.5
2022-10-24T11:51:50.477Z,19.4
2022-10-24T11:52:57.024Z,19.3
2022-10-24T11:54:03.819Z,19.3
2022-10-24T11:55:10.600Z,19.3
2022-10-24T11:56:17.386Z,19.3
2022-10-24T11:57:24.219Z,19.3
2022-10-24T11:58:30.978Z,19.3
2022-10-24T11:59:37.754Z,19.3
2022-10-24T12:00:44.554Z,19.2
2022-10-24T12:01:51.334Z,19.2
2022-10-24T12:02:58.127Z,19.4
2022-10-24T12:04:04.914Z,19.8
2022-10-24T12:05:11.700Z,20.3
2022-10-24T12:06:18.476Z,20.7
2022-10-24T12:07:25.273Z,21.5
2022-10-24T12:10:43.377Z,22.6
2022-10-24T12:12:22.113Z,21.6
2022-10-24T12:14:00.851Z,21.3
2022-10-24T12:15:08.112Z,21
2022-10-24T12:16:15.381Z,20.8
2022-10-24T12:17:54.100Z,20.6
2022-10-24T12:19:32.833Z,20.4
2022-10-24T12:21:11.576Z,20.5
2022-10-24T12:22:50.297Z,20.5
2022-10-24T12:24:29.020Z,20.2
2022-10-24T12:26:07.745Z,20.1
2022-10-24T12:27:46.482Z,20.7
2022-10-24T12:29:25.203Z,21
2022-10-24T12:31:36.127Z,21.1
2022-10-24T12:33:33.215Z,23
2022-10-24T12:36:49.119Z,23.2
2022-10-24T12:37:55.910Z,23.1
2022-10-24T12:39:02.700Z,23.8
2022-10-24T12:40:09.492Z,24.4
2022-10-24T12:41:16.282Z,24.8
2022-10-24T12:42:23.071Z,24.8
2022-10-24T12:43:29.858Z,24.6
2022-10-24T12:44:36.654Z,24.5
2022-10-24T12:45:43.441Z,24.8
2022-10-24T12:46:50.237Z,24.1
2022-10-24T12:47:57.022Z,23.9
2022-10-24T12:49:03.818Z,23.4
2022-10-24T12:50:10.606Z,22.8
2022-10-24T12:51:17.410Z,21.8
2022-10-24T12:52:24.186Z,21.3
2022-10-24T12:53:30.974Z,21.5
2022-10-24T12:54:37.788Z,21.7
2022-10-24T12:55:44.566Z,22
2022-10-24T12:56:51.380Z,22
2022-10-24T12:57:58.141Z,21.6
2022-10-24T12:59:04.927Z,21.4
2022-10-24T13:00:11.805Z,21.2
2022-10-24T13:01:18.511Z,21.7
2022-10-24T13:02:25.297Z,22.1
2022-10-24T13:03:32.086Z,22.6
2022-10-24T13:04:39.390Z,23
2022-10-24T13:05:46.668Z,22.5
2022-10-24T13:07:25.389Z,22.3
2022-10-24T13:09:04.113Z,22.8
2022-10-24T13:10:42.854Z,23.3
2022-10-24T13:12:21.584Z,23
2022-10-24T13:14:00.324Z,22.5
2022-10-24T13:15:39.068Z,22.5
2022-10-24T13:17:17.799Z,22
2022-10-24T13:18:56.525Z,22.4
2022-10-24T13:20:35.258Z,22.3
2022-10-24T13:21:42.528Z,21.9
2022-10-24T13:22:49.788Z,21.8
2022-10-24T13:26:57.790Z,21.9
2022-10-24T13:30:13.694Z,21.1
2022-10-24T13:31:20.475Z,21.1
2022-10-24T13:32:27.268Z,21.3
2022-10-24T13:33:34.064Z,21.4
2022-10-24T13:34:40.850Z,21.5
2022-10-24T13:35:47.637Z,21.4
2022-10-24T13:36:54.420Z,21.5
2022-10-24T13:38:01.227Z,21.3
2022-10-24T13:39:08.013Z,21.2
2022-10-24T13:40:14.790Z,21
2022-10-24T13:41:21.591Z,20.9
2022-10-24T13:42:28.362Z,20.8
2022-10-24T13:43:35.164Z,20.8
2022-10-24T13:44:41.935Z,20.6
2022-10-24T13:45:48.727Z,20.1
2022-10-24T13:46:55.508Z,19.9
2022-10-24T13:48:02.297Z,19.9
2022-10-24T13:49:09.083Z,19.8
2022-10-24T13:50:15.877Z,19.6
2022-10-24T13:51:22.659Z,19.5
2022-10-24T13:52:29.450Z,19.4
2022-10-24T13:53:36.236Z,19.2
2022-10-24T13:54:43.026Z,19.2
2022-10-24T13:55:49.813Z,19.1
2022-10-24T13:56:56.631Z,19
2022-10-24T13:58:29.609Z,18.8
2022-10-24T14:00:08.356Z,18.7
2022-10-24T14:01:47.073Z,18.5
2022-10-24T14:03:25.815Z,18.5
2022-10-24T14:05:04.539Z,18.5
2022-10-24T14:06:11.816Z,18.7
2022-10-24T14:07:19.065Z,18.6
2022-10-24T14:08:57.803Z,18.6
2022-10-24T14:10:36.537Z,18.7
2022-10-24T14:12:15.269Z,18.9
2022-10-24T14:13:54.012Z,19.1
2022-10-24T14:15:32.730Z,19.2
2022-10-24T14:17:11.463Z,19.1
2022-10-24T14:21:19.460Z,18.9
2022-10-24T14:22:38.277Z,18.5
2022-10-24T14:24:35.371Z,18.4
2022-10-24T14:25:42.147Z,18.3
2022-10-24T14:26:48.945Z,18.2
2022-10-24T14:27:55.730Z,18.2
2022-10-24T14:29:02.512Z,18.1
2022-10-24T14:30:09.307Z,18.1
2022-10-24T14:31:16.101Z,18.1
2022-10-24T14:32:22.894Z,18.1
2022-10-24T14:33:29.697Z,18.1
2022-10-24T14:34:36.501Z,18.2
2022-10-24T14:35:43.262Z,18.1
2022-10-24T14:36:50.053Z,18.1
2022-10-24T14:37:56.842Z,18.1
2022-10-24T14:39:03.634Z,18.2
2022-10-24T14:40:10.424Z,18.2
2022-10-24T14:41:17.207Z,18.2
2022-10-24T14:42:24.011Z,18.1
2022-10-24T14:43:30.800Z,18.1
2022-10-24T14:44:37.577Z,18.1
2022-10-24T14:45:44.371Z,18.1
2022-10-24T14:46:51.154Z,18.1
2022-10-24T14:47:57.954Z,18.1
2022-10-24T14:50:11.513Z,17.9
2022-10-24T14:52:23.716Z,17.8
2022-10-24T14:54:02.619Z,17.7
2022-10-24T14:55:41.194Z,17.7
2022-10-24T14:57:18.736Z,17.6
2022-10-24T14:58:26.016Z,17.6
2022-10-24T15:00:04.745Z,17.6
2022-10-24T15:01:43.481Z,17.5
2022-10-24T15:03:22.215Z,17.5
2022-10-24T15:05:00.947Z,17.5
2022-10-24T15:06:39.716Z,17.4
2022-10-24T15:08:18.458Z,17.5
2022-10-24T15:09:57.159Z,17.5
2022-10-24T15:11:35.882Z,17.4
2022-10-24T15:13:46.747Z,17.4
2022-10-24T15:15:42.042Z,17.5
2022-10-24T15:16:48.461Z,17.6
2022-10-24T15:17:54.911Z,17.6
2022-10-24T15:19:01.335Z,17.6
2022-10-24T15:20:07.775Z,17.7
2022-10-24T15:21:14.209Z,17.7
2022-10-24T15:22:20.637Z,17.7
2022-10-24T15:23:27.080Z,17.6
2022-10-24T15:24:33.515Z,17.6
2022-10-24T15:25:39.946Z,17.6
2022-10-24T15:26:46.376Z,17.5
2022-10-24T15:27:52.889Z,17.5
2022-10-24T15:28:59.247Z,17.4
2022-10-24T15:30:05.685Z,17.4
2022-10-24T15:31:12.115Z,17.3
2022-10-24T15:32:18.557Z,17.2
2022-10-24T15:33:24.990Z,17.2
2022-10-24T15:34:31.423Z,17.2
2022-10-24T15:35:37.861Z,17.2
2022-10-24T15:36:44.290Z,17.2
2022-10-24T15:37:50.722Z,17.1
2022-10-24T15:38:57.165Z,17.1
2022-10-24T15:40:03.608Z,17.1
2022-10-24T15:41:10.031Z,17.1
2022-10-24T15:42:16.462Z,17
2022-10-24T15:43:23.021Z,17
2022-10-24T15:44:29.574Z,16.9
2022-10-24T15:45:36.133Z,16.9
2022-10-24T15:46:42.673Z,16.9
2022-10-24T15:47:49.247Z,16.8
2022-10-24T15:48:55.794Z,16.7
2022-10-24T15:50:02.328Z,16.6
2022-10-24T15:51:08.889Z,16.6
2022-10-24T15:52:15.435Z,16.6
2022-10-24T15:53:21.994Z,16.6
2022-10-24T15:54:28.534Z,16.5
2022-10-24T15:55:35.082Z,16.5
2022-10-24T15:56:41.636Z,16.5
2022-10-24T15:57:49.439Z,16.5
2022-10-24T15:58:56.225Z,16.4
2022-10-24T16:00:03.012Z,16.3
2022-10-24T16:01:09.839Z,16.3
2022-10-24T16:02:16.596Z,16.3
2022-10-24T16:03:23.390Z,16.3
2022-10-24T16:04:30.173Z,16.3
2022-10-24T16:05:36.963Z,16.2
2022-10-24T16:06:43.747Z,16.1
2022-10-24T16:07:50.541Z,16.1
2022-10-24T16:08:57.322Z,16
2022-10-24T16:10:04.104Z,16
2022-10-24T16:11:10.885Z,16
2022-10-24T16:14:29.101Z,16
2022-10-24T16:15:36.362Z,15.8
2022-10-24T16:16:43.621Z,15.9
2022-10-24T16:18:22.353Z,15.8
2022-10-24T16:20:01.090Z,15.8
2022-10-24T16:21:39.823Z,15.7
2022-10-24T16:23:18.561Z,15.6
2022-10-24T16:24:57.293Z,15.5
2022-10-24T16:26:36.019Z,15.4
2022-10-24T16:28:14.754Z,15.4
2022-10-24T16:29:53.513Z,15.4
2022-10-24T16:31:32.226Z,15.4
2022-10-24T16:32:39.489Z,15.4
2022-10-24T16:35:40.228Z,15.4
2022-10-24T16:38:55.907Z,15.3
2022-10-24T16:40:02.459Z,15.3
2022-10-24T16:41:09.008Z,15.3
2022-10-24T16:42:15.555Z,15.3
2022-10-24T16:43:22.112Z,15.3
2022-10-24T16:44:28.669Z,15.3
2022-10-24T16:45:35.218Z,15.3
2022-10-24T16:46:41.768Z,15.2
2022-10-24T16:47:48.320Z,15.2
2022-10-24T16:48:54.905Z,15.1
2022-10-24T16:50:01.431Z,15.1
2022-10-24T16:51:07.986Z,15.1
2022-10-24T16:52:14.534Z,15.1
2022-10-24T16:53:21.118Z,15
2022-10-24T16:54:27.639Z,15
2022-10-24T16:55:34.189Z,14.9
2022-10-24T16:56:40.772Z,14.9
2022-10-24T16:57:47.292Z,14.9
2022-10-24T16:58:53.859Z,14.9
2022-10-24T17:00:00.414Z,14.8
2022-10-24T17:01:06.961Z,14.8
2022-10-24T17:02:13.515Z,14.7
2022-10-24T17:03:20.069Z,14.7
2022-10-24T17:04:26.630Z,14.7
2022-10-24T17:05:33.175Z,14.6
2022-10-24T17:06:40.002Z,14.6
2022-10-24T17:07:46.773Z,14.6
2022-10-24T17:08:53.572Z,14.5
2022-10-24T17:10:00.409Z,14.5
2022-10-24T17:11:07.147Z,14.4
2022-10-24T17:12:13.921Z,14.4
2022-10-24T17:13:20.722Z,14.4
2022-10-24T17:14:27.528Z,14.5
2022-10-24T17:15:34.451Z,14.5
2022-10-24T17:16:41.096Z,14.4
2022-10-24T17:17:47.883Z,14.5
2022-10-24T17:18:54.676Z,14.5
2022-10-24T17:20:01.474Z,14.5
2022-10-24T17:21:08.767Z,14.5
2022-10-24T17:22:47.515Z,14.5
2022-10-24T17:24:26.275Z,14.4
2022-10-24T17:26:04.979Z,14.4
2022-10-24T17:27:43.719Z,14.3
2022-10-24T17:29:22.452Z,14.3
2022-10-24T17:31:01.200Z,14.3
2022-10-24T17:32:39.936Z,14.3
2022-10-24T17:34:18.658Z,14.2
2022-10-24T17:35:57.394Z,14.3
2022-10-24T17:37:36.145Z,14.3
2022-10-24T17:39:14.871Z,14.4
2022-10-24T17:40:53.608Z,14.4